Main page
METAR-TAF:

METAR-TAF

Airports :

Zahedan, Iran

Zahedan Airport

latitude: 29-28N, longitude: 060-53E, elevation: 1370 m

Current weather observation

The report was made 19 minutes ago, at 17:00 UTC
Wind 14 kt from the North
Temperature 29°C
Humidity 20%
Pressure 1014 hPa
Visibility: 2000 m
widespread dust

METAR: OIZH 261700Z 01014KT 2000 DU NSC 29/04 Q1013 A2994

Time: 21:49 (17:19 UTC)

Forecast

The report was made 6 hours and 19 minutes ago, at 11:00 UTC
Forecast valid from 26 at 12 UTC to 27 at 18 UTC
Wind 14 kt from the North/Northwest
Visibility: 7000 m
Temporary
from 26 at 12 UTC to 26 at 16 UTC
Wind 14 kt from the North/Northwest with gusts up to 23 kt
Visibility: 4000 m
sand
Temporary
from 27 at 06 UTC to 27 at 15 UTC
Wind 17 kt from the North/Northwest with gusts up to 27 kt
Visibility: 3000 m
sand

TAF: OIZH 261100Z 2612/2718 33007MPS 7000 NSC TEMPO 2612/2616 33007G12MPS 4000 SA TEMPO 2706/2715 33009G14MPS 3000 SA

Weather observations and forecasts of more than 4000 airports (METAR and TAF reports).

The available stations are represented by yellow and red dots on the map.

Hover mouse over dot to see the name of the station.

Then click to see weather observations and forecasts.

To change the map : click on the green buttons with a black cross to zoom in, on the green button with a dash to zoom out, or on the green arrows for adjacent maps.


METAR-TAF: